sensor_id;sensor_type;location;lat;lon;timestamp;P1;durP1;ratioP1;P2;durP2;ratioP2
57401;SDS011;43226;51.110;6.998;2023-06-14T00:00:06;5.43;;;3.90;;
57401;SDS011;43226;51.110;6.998;2023-06-14T00:02:32;3.93;;;3.20;;
57401;SDS011;43226;51.110;6.998;2023-06-14T00:04:57;6.53;;;4.53;;
57401;SDS011;43226;51.110;6.998;2023-06-14T00:07:33;6.07;;;4.13;;
57401;SDS011;43226;51.110;6.998;2023-06-14T00:09:58;4.90;;;4.17;;
57401;SDS011;43226;51.110;6.998;2023-06-14T00:12:23;7.72;;;4.60;;
57401;SDS011;43226;51.110;6.998;2023-06-14T00:14:49;5.43;;;4.57;;
57401;SDS011;43226;51.110;6.998;2023-06-14T00:17:14;5.73;;;4.30;;
57401;SDS011;43226;51.110;6.998;2023-06-14T00:19:41;4.20;;;3.80;;
57401;SDS011;43226;51.110;6.998;2023-06-14T00:22:06;5.57;;;4.27;;
57401;SDS011;43226;51.110;6.998;2023-06-14T00:24:31;6.80;;;4.23;;
57401;SDS011;43226;51.110;6.998;2023-06-14T00:26:56;5.50;;;4.47;;
57401;SDS011;43226;51.110;6.998;2023-06-14T00:29:22;6.23;;;3.93;;
57401;SDS011;43226;51.110;6.998;2023-06-14T00:31:47;7.00;;;3.87;;
57401;SDS011;43226;51.110;6.998;2023-06-14T00:34:12;6.90;;;4.40;;
57401;SDS011;43226;51.110;6.998;2023-06-14T00:36:37;4.40;;;3.80;;
57401;SDS011;43226;51.110;6.998;2023-06-14T00:39:02;5.93;;;4.23;;
57401;SDS011;43226;51.110;6.998;2023-06-14T00:41:28;6.17;;;4.03;;
57401;SDS011;43226;51.110;6.998;2023-06-14T00:43:53;5.73;;;4.50;;
57401;SDS011;43226;51.110;6.998;2023-06-14T00:46:21;8.00;;;4.10;;
57401;SDS011;43226;51.110;6.998;2023-06-14T00:48:47;8.67;;;5.40;;
57401;SDS011;43226;51.110;6.998;2023-06-14T00:51:12;6.20;;;4.00;;
57401;SDS011;43226;51.110;6.998;2023-06-14T00:53:37;6.13;;;4.03;;
57401;SDS011;43226;51.110;6.998;2023-06-14T00:56:04;12.63;;;5.00;;
57401;SDS011;43226;51.110;6.998;2023-06-14T00:58:30;4.50;;;3.90;;
57401;SDS011;43226;51.110;6.998;2023-06-14T01:00:55;6.00;;;3.73;;
57401;SDS011;43226;51.110;6.998;2023-06-14T01:03:21;5.47;;;4.30;;
57401;SDS011;43226;51.110;6.998;2023-06-14T01:05:48;6.20;;;3.80;;
57401;SDS011;43226;51.110;6.998;2023-06-14T01:08:23;6.70;;;4.60;;
57401;SDS011;43226;51.110;6.998;2023-06-14T01:15:43;6.30;;;4.32;;
57401;SDS011;43226;51.110;6.998;2023-06-14T01:18:08;5.60;;;3.83;;
57401;SDS011;43226;51.110;6.998;2023-06-14T01:20:42;8.90;;;4.23;;
57401;SDS011;43226;51.110;6.998;2023-06-14T01:23:09;4.80;;;3.90;;
57401;SDS011;43226;51.110;6.998;2023-06-14T01:25:37;5.53;;;3.60;;
57401;SDS011;43226;51.110;6.998;2023-06-14T01:28:04;5.37;;;4.33;;
57401;SDS011;43226;51.110;6.998;2023-06-14T01:30:35;5.37;;;4.50;;
57401;SDS011;43226;51.110;6.998;2023-06-14T01:33:02;5.77;;;3.67;;
57401;SDS011;43226;51.110;6.998;2023-06-14T01:35:28;6.20;;;4.27;;
57401;SDS011;43226;51.110;6.998;2023-06-14T01:37:53;4.27;;;3.87;;
57401;SDS011;43226;51.110;6.998;2023-06-14T01:40:19;5.60;;;3.93;;
57401;SDS011;43226;51.110;6.998;2023-06-14T01:42:46;4.93;;;3.47;;
57401;SDS011;43226;51.110;6.998;2023-06-14T01:45:11;5.33;;;4.20;;
57401;SDS011;43226;51.110;6.998;2023-06-14T01:47:37;5.50;;;4.50;;
57401;SDS011;43226;51.110;6.998;2023-06-14T01:50:03;4.10;;;3.60;;
57401;SDS011;43226;51.110;6.998;2023-06-14T01:52:28;6.10;;;3.57;;
57401;SDS011;43226;51.110;6.998;2023-06-14T01:54:54;7.23;;;4.47;;
57401;SDS011;43226;51.110;6.998;2023-06-14T01:57:19;5.33;;;3.90;;
57401;SDS011;43226;51.110;6.998;2023-06-14T01:59:45;4.00;;;3.37;;
57401;SDS011;43226;51.110;6.998;2023-06-14T02:02:13;4.50;;;3.70;;
57401;SDS011;43226;51.110;6.998;2023-06-14T02:04:38;4.33;;;3.57;;
57401;SDS011;43226;51.110;6.998;2023-06-14T02:07:03;5.97;;;3.77;;
57401;SDS011;43226;51.110;6.998;2023-06-14T02:09:28;5.53;;;4.13;;
57401;SDS011;43226;51.110;6.998;2023-06-14T02:11:54;4.70;;;4.20;;
57401;SDS011;43226;51.110;6.998;2023-06-14T02:14:19;5.03;;;3.90;;
57401;SDS011;43226;51.110;6.998;2023-06-14T02:16:45;3.30;;;2.97;;
57401;SDS011;43226;51.110;6.998;2023-06-14T02:19:17;4.80;;;3.47;;
57401;SDS011;43226;51.110;6.998;2023-06-14T02:21:43;4.10;;;3.37;;
57401;SDS011;43226;51.110;6.998;2023-06-14T02:24:08;7.27;;;4.10;;
57401;SDS011;43226;51.110;6.998;2023-06-14T02:26:33;6.00;;;3.70;;
57401;SDS011;43226;51.110;6.998;2023-06-14T02:28:59;8.40;;;4.27;;
57401;SDS011;43226;51.110;6.998;2023-06-14T02:31:24;4.50;;;3.20;;
57401;SDS011;43226;51.110;6.998;2023-06-14T02:33:50;5.03;;;3.70;;
57401;SDS011;43226;51.110;6.998;2023-06-14T02:36:15;6.40;;;3.57;;
57401;SDS011;43226;51.110;6.998;2023-06-14T02:38:40;4.10;;;3.60;;
57401;SDS011;43226;51.110;6.998;2023-06-14T02:41:06;8.50;;;3.80;;
57401;SDS011;43226;51.110;6.998;2023-06-14T02:43:31;4.20;;;3.47;;
57401;SDS011;43226;51.110;6.998;2023-06-14T02:45:56;5.33;;;3.57;;
57401;SDS011;43226;51.110;6.998;2023-06-14T02:48:21;5.07;;;3.50;;
57401;SDS011;43226;51.110;6.998;2023-06-14T02:50:46;7.97;;;3.70;;
57401;SDS011;43226;51.110;6.998;2023-06-14T02:53:11;6.90;;;4.20;;
57401;SDS011;43226;51.110;6.998;2023-06-14T02:55:37;4.73;;;3.30;;
57401;SDS011;43226;51.110;6.998;2023-06-14T02:58:04;4.93;;;3.70;;
57401;SDS011;43226;51.110;6.998;2023-06-14T03:00:30;3.93;;;3.20;;
57401;SDS011;43226;51.110;6.998;2023-06-14T03:02:55;8.70;;;3.83;;
57401;SDS011;43226;51.110;6.998;2023-06-14T03:05:21;5.20;;;3.20;;
57401;SDS011;43226;51.110;6.998;2023-06-14T03:07:46;5.23;;;3.47;;
57401;SDS011;43226;51.110;6.998;2023-06-14T03:10:12;3.87;;;3.10;;
57401;SDS011;43226;51.110;6.998;2023-06-14T03:12:38;3.70;;;3.23;;
57401;SDS011;43226;51.110;6.998;2023-06-14T03:15:03;3.43;;;2.83;;
57401;SDS011;43226;51.110;6.998;2023-06-14T03:17:29;6.03;;;3.00;;
57401;SDS011;43226;51.110;6.998;2023-06-14T03:19:58;4.33;;;3.30;;
57401;SDS011;43226;51.110;6.998;2023-06-14T03:22:23;2.90;;;2.70;;
57401;SDS011;43226;51.110;6.998;2023-06-14T03:24:50;3.20;;;2.90;;
57401;SDS011;43226;51.110;6.998;2023-06-14T03:27:16;8.77;;;3.37;;
57401;SDS011;43226;51.110;6.998;2023-06-14T03:29:41;3.40;;;2.73;;
57401;SDS011;43226;51.110;6.998;2023-06-14T03:32:07;4.70;;;3.30;;
57401;SDS011;43226;51.110;6.998;2023-06-14T03:34:32;4.60;;;2.87;;
57401;SDS011;43226;51.110;6.998;2023-06-14T03:36:57;5.63;;;2.93;;
57401;SDS011;43226;51.110;6.998;2023-06-14T03:39:22;3.70;;;3.30;;
57401;SDS011;43226;51.110;6.998;2023-06-14T03:41:48;4.90;;;3.43;;
57401;SDS011;43226;51.110;6.998;2023-06-14T03:44:16;4.47;;;3.20;;
57401;SDS011;43226;51.110;6.998;2023-06-14T03:46:42;5.07;;;3.03;;
57401;SDS011;43226;51.110;6.998;2023-06-14T03:49:08;3.40;;;2.93;;
57401;SDS011;43226;51.110;6.998;2023-06-14T03:51:33;3.73;;;3.30;;
57401;SDS011;43226;51.110;6.998;2023-06-14T03:54:00;4.70;;;3.17;;
57401;SDS011;43226;51.110;6.998;2023-06-14T03:56:25;3.60;;;3.27;;
57401;SDS011;43226;51.110;6.998;2023-06-14T03:58:51;3.30;;;2.47;;
57401;SDS011;43226;51.110;6.998;2023-06-14T04:01:17;6.27;;;4.57;;
57401;SDS011;43226;51.110;6.998;2023-06-14T04:03:42;5.23;;;3.03;;
57401;SDS011;43226;51.110;6.998;2023-06-14T04:06:07;3.60;;;3.30;;
57401;SDS011;43226;51.110;6.998;2023-06-14T04:08:32;4.23;;;2.90;;
57401;SDS011;43226;51.110;6.998;2023-06-14T04:10:57;6.87;;;3.23;;
57401;SDS011;43226;51.110;6.998;2023-06-14T04:13:23;6.80;;;3.80;;
57401;SDS011;43226;51.110;6.998;2023-06-14T04:15:48;5.67;;;3.17;;
57401;SDS011;43226;51.110;6.998;2023-06-14T04:18:13;5.70;;;2.70;;
57401;SDS011;43226;51.110;6.998;2023-06-14T04:20:38;3.97;;;3.40;;
57401;SDS011;43226;51.110;6.998;2023-06-14T04:23:15;3.90;;;3.30;;
57401;SDS011;43226;51.110;6.998;2023-06-14T04:25:40;4.10;;;3.13;;
57401;SDS011;43226;51.110;6.998;2023-06-14T04:28:10;3.13;;;2.83;;
57401;SDS011;43226;51.110;6.998;2023-06-14T04:30:36;3.27;;;2.93;;
57401;SDS011;43226;51.110;6.998;2023-06-14T04:33:03;6.00;;;3.43;;
57401;SDS011;43226;51.110;6.998;2023-06-14T04:35:30;3.77;;;3.00;;
57401;SDS011;43226;51.110;6.998;2023-06-14T04:37:57;4.53;;;3.47;;
57401;SDS011;43226;51.110;6.998;2023-06-14T04:40:22;3.80;;;3.43;;
57401;SDS011;43226;51.110;6.998;2023-06-14T04:42:47;4.00;;;3.33;;
57401;SDS011;43226;51.110;6.998;2023-06-14T04:45:13;3.50;;;3.10;;
57401;SDS011;43226;51.110;6.998;2023-06-14T04:47:40;5.17;;;3.60;;
57401;SDS011;43226;51.110;6.998;2023-06-14T04:50:05;6.20;;;3.00;;
57401;SDS011;43226;51.110;6.998;2023-06-14T04:52:30;4.40;;;3.50;;
57401;SDS011;43226;51.110;6.998;2023-06-14T04:54:56;6.30;;;3.77;;
57401;SDS011;43226;51.110;6.998;2023-06-14T04:57:22;3.70;;;3.37;;
57401;SDS011;43226;51.110;6.998;2023-06-14T04:59:50;4.97;;;3.50;;
57401;SDS011;43226;51.110;6.998;2023-06-14T05:02:19;3.70;;;3.20;;
57401;SDS011;43226;51.110;6.998;2023-06-14T05:04:45;3.70;;;3.37;;
57401;SDS011;43226;51.110;6.998;2023-06-14T05:07:12;7.80;;;3.50;;
57401;SDS011;43226;51.110;6.998;2023-06-14T05:09:39;4.30;;;3.10;;
57401;SDS011;43226;51.110;6.998;2023-06-14T05:12:04;5.00;;;4.00;;
57401;SDS011;43226;51.110;6.998;2023-06-14T05:14:29;5.17;;;3.13;;
57401;SDS011;43226;51.110;6.998;2023-06-14T05:16:54;3.33;;;3.07;;
57401;SDS011;43226;51.110;6.998;2023-06-14T05:19:20;4.60;;;3.13;;
57401;SDS011;43226;51.110;6.998;2023-06-14T05:21:46;3.80;;;3.20;;
57401;SDS011;43226;51.110;6.998;2023-06-14T05:24:12;5.30;;;3.57;;
57401;SDS011;43226;51.110;6.998;2023-06-14T05:26:37;6.17;;;3.90;;
57401;SDS011;43226;51.110;6.998;2023-06-14T05:29:02;6.30;;;2.93;;
57401;SDS011;43226;51.110;6.998;2023-06-14T05:31:28;7.60;;;3.13;;
57401;SDS011;43226;51.110;6.998;2023-06-14T05:33:53;4.03;;;3.33;;
57401;SDS011;43226;51.110;6.998;2023-06-14T05:36:22;4.03;;;3.10;;
57401;SDS011;43226;51.110;6.998;2023-06-14T05:38:47;3.80;;;2.90;;
57401;SDS011;43226;51.110;6.998;2023-06-14T05:41:12;4.10;;;3.37;;
57401;SDS011;43226;51.110;6.998;2023-06-14T05:43:38;3.63;;;2.97;;
57401;SDS011;43226;51.110;6.998;2023-06-14T05:46:03;3.93;;;2.73;;
57401;SDS011;43226;51.110;6.998;2023-06-14T05:48:29;5.33;;;4.13;;
57401;SDS011;43226;51.110;6.998;2023-06-14T05:50:55;4.17;;;3.30;;
57401;SDS011;43226;51.110;6.998;2023-06-14T05:53:20;5.70;;;3.70;;
57401;SDS011;43226;51.110;6.998;2023-06-14T05:55:45;4.17;;;3.10;;
57401;SDS011;43226;51.110;6.998;2023-06-14T05:58:11;3.17;;;2.87;;
57401;SDS011;43226;51.110;6.998;2023-06-14T06:00:38;2.87;;;2.57;;
57401;SDS011;43226;51.110;6.998;2023-06-14T06:03:03;3.40;;;2.90;;
57401;SDS011;43226;51.110;6.998;2023-06-14T06:05:28;3.37;;;2.80;;
57401;SDS011;43226;51.110;6.998;2023-06-14T06:07:54;4.30;;;2.90;;
57401;SDS011;43226;51.110;6.998;2023-06-14T06:10:19;4.60;;;2.50;;
57401;SDS011;43226;51.110;6.998;2023-06-14T06:12:44;4.70;;;3.20;;
57401;SDS011;43226;51.110;6.998;2023-06-14T06:15:10;5.17;;;2.33;;
57401;SDS011;43226;51.110;6.998;2023-06-14T06:17:37;3.17;;;2.50;;
57401;SDS011;43226;51.110;6.998;2023-06-14T06:20:02;3.70;;;2.50;;
57401;SDS011;43226;51.110;6.998;2023-06-14T06:22:28;2.83;;;2.33;;
57401;SDS011;43226;51.110;6.998;2023-06-14T06:24:53;3.50;;;2.40;;
57401;SDS011;43226;51.110;6.998;2023-06-14T06:27:18;4.27;;;2.57;;
57401;SDS011;43226;51.110;6.998;2023-06-14T06:29:44;6.13;;;2.60;;
57401;SDS011;43226;51.110;6.998;2023-06-14T06:32:09;6.30;;;2.60;;
57401;SDS011;43226;51.110;6.998;2023-06-14T06:34:35;3.60;;;2.60;;
57401;SDS011;43226;51.110;6.998;2023-06-14T06:37:00;2.60;;;2.40;;
57401;SDS011;43226;51.110;6.998;2023-06-14T06:39:26;5.07;;;2.70;;
57401;SDS011;43226;51.110;6.998;2023-06-14T06:41:51;2.90;;;2.43;;
57401;SDS011;43226;51.110;6.998;2023-06-14T06:44:16;4.73;;;2.87;;
57401;SDS011;43226;51.110;6.998;2023-06-14T06:46:43;2.57;;;2.37;;
57401;SDS011;43226;51.110;6.998;2023-06-14T06:49:08;3.13;;;2.20;;
57401;SDS011;43226;51.110;6.998;2023-06-14T06:51:34;2.73;;;2.23;;
57401;SDS011;43226;51.110;6.998;2023-06-14T06:54:00;2.70;;;2.20;;
57401;SDS011;43226;51.110;6.998;2023-06-14T06:56:25;5.07;;;2.20;;
57401;SDS011;43226;51.110;6.998;2023-06-14T06:58:51;2.17;;;1.97;;
57401;SDS011;43226;51.110;6.998;2023-06-14T07:01:16;9.90;;;3.10;;
57401;SDS011;43226;51.110;6.998;2023-06-14T07:03:42;2.13;;;2.00;;
57401;SDS011;43226;51.110;6.998;2023-06-14T07:06:07;2.27;;;2.07;;
57401;SDS011;43226;51.110;6.998;2023-06-14T07:08:32;1.43;;;1.33;;
57401;SDS011;43226;51.110;6.998;2023-06-14T07:10:58;1.90;;;1.80;;
57401;SDS011;43226;51.110;6.998;2023-06-14T07:13:23;6.50;;;1.57;;
57401;SDS011;43226;51.110;6.998;2023-06-14T07:15:48;2.60;;;1.40;;
57401;SDS011;43226;51.110;6.998;2023-06-14T07:18:14;1.97;;;1.83;;
57401;SDS011;43226;51.110;6.998;2023-06-14T07:20:40;2.10;;;1.70;;
57401;SDS011;43226;51.110;6.998;2023-06-14T07:23:05;2.00;;;1.80;;
57401;SDS011;43226;51.110;6.998;2023-06-14T07:25:30;4.67;;;1.60;;
57401;SDS011;43226;51.110;6.998;2023-06-14T07:27:56;2.07;;;1.53;;
57401;SDS011;43226;51.110;6.998;2023-06-14T07:30:21;2.20;;;1.77;;
57401;SDS011;43226;51.110;6.998;2023-06-14T07:32:51;2.07;;;1.60;;
57401;SDS011;43226;51.110;6.998;2023-06-14T07:35:16;1.50;;;1.40;;
57401;SDS011;43226;51.110;6.998;2023-06-14T07:37:41;1.77;;;1.30;;
57401;SDS011;43226;51.110;6.998;2023-06-14T07:40:07;2.57;;;1.30;;
57401;SDS011;43226;51.110;6.998;2023-06-14T07:42:35;1.63;;;1.53;;
57401;SDS011;43226;51.110;6.998;2023-06-14T07:45:01;6.23;;;1.60;;
57401;SDS011;43226;51.110;6.998;2023-06-14T07:47:26;1.60;;;1.50;;
57401;SDS011;43226;51.110;6.998;2023-06-14T07:49:52;2.33;;;1.60;;
57401;SDS011;43226;51.110;6.998;2023-06-14T07:52:17;1.37;;;1.27;;
57401;SDS011;43226;51.110;6.998;2023-06-14T07:54:42;2.33;;;1.63;;
57401;SDS011;43226;51.110;6.998;2023-06-14T07:57:07;2.03;;;1.50;;
57401;SDS011;43226;51.110;6.998;2023-06-14T07:59:33;1.50;;;1.40;;
57401;SDS011;43226;51.110;6.998;2023-06-14T08:01:58;4.90;;;1.63;;
57401;SDS011;43226;51.110;6.998;2023-06-14T08:04:24;1.30;;;1.20;;
57401;SDS011;43226;51.110;6.998;2023-06-14T08:06:50;2.17;;;1.80;;
57401;SDS011;43226;51.110;6.998;2023-06-14T08:09:15;2.07;;;1.40;;
57401;SDS011;43226;51.110;6.998;2023-06-14T08:11:41;1.37;;;1.27;;
57401;SDS011;43226;51.110;6.998;2023-06-14T08:14:08;1.60;;;1.40;;
57401;SDS011;43226;51.110;6.998;2023-06-14T08:16:33;1.50;;;1.40;;
57401;SDS011;43226;51.110;6.998;2023-06-14T08:18:58;1.60;;;1.50;;
57401;SDS011;43226;51.110;6.998;2023-06-14T08:21:23;1.63;;;1.50;;
57401;SDS011;43226;51.110;6.998;2023-06-14T08:23:48;1.73;;;1.37;;
57401;SDS011;43226;51.110;6.998;2023-06-14T08:26:14;1.87;;;1.70;;
57401;SDS011;43226;51.110;6.998;2023-06-14T08:28:39;2.00;;;1.50;;
57401;SDS011;43226;51.110;6.998;2023-06-14T08:31:04;1.67;;;1.33;;
57401;SDS011;43226;51.110;6.998;2023-06-14T08:33:30;1.70;;;1.43;;
57401;SDS011;43226;51.110;6.998;2023-06-14T08:35:57;1.63;;;1.50;;
57401;SDS011;43226;51.110;6.998;2023-06-14T08:38:23;1.77;;;1.50;;
57401;SDS011;43226;51.110;6.998;2023-06-14T08:40:48;3.37;;;1.87;;
57401;SDS011;43226;51.110;6.998;2023-06-14T08:43:15;2.60;;;1.70;;
57401;SDS011;43226;51.110;6.998;2023-06-14T08:45:40;8.40;;;1.57;;
57401;SDS011;43226;51.110;6.998;2023-06-14T08:48:06;2.80;;;1.60;;
57401;SDS011;43226;51.110;6.998;2023-06-14T08:50:32;2.57;;;1.90;;
57401;SDS011;43226;51.110;6.998;2023-06-14T08:52:58;2.50;;;1.40;;
57401;SDS011;43226;51.110;6.998;2023-06-14T08:55:27;2.47;;;1.50;;
57401;SDS011;43226;51.110;6.998;2023-06-14T08:57:53;4.83;;;1.80;;
57401;SDS011;43226;51.110;6.998;2023-06-14T09:00:19;2.30;;;1.53;;
57401;SDS011;43226;51.110;6.998;2023-06-14T09:02:45;1.93;;;1.67;;
57401;SDS011;43226;51.110;6.998;2023-06-14T09:05:10;3.13;;;1.53;;
57401;SDS011;43226;51.110;6.998;2023-06-14T09:07:38;2.60;;;1.97;;
57401;SDS011;43226;51.110;6.998;2023-06-14T09:10:06;1.83;;;1.73;;
57401;SDS011;43226;51.110;6.998;2023-06-14T09:12:32;2.27;;;1.63;;
57401;SDS011;43226;51.110;6.998;2023-06-14T09:14:57;2.07;;;1.70;;
57401;SDS011;43226;51.110;6.998;2023-06-14T09:17:22;1.67;;;1.43;;
57401;SDS011;43226;51.110;6.998;2023-06-14T09:19:48;2.20;;;1.70;;
57401;SDS011;43226;51.110;6.998;2023-06-14T09:22:13;2.17;;;1.70;;
57401;SDS011;43226;51.110;6.998;2023-06-14T09:24:38;1.77;;;1.40;;
57401;SDS011;43226;51.110;6.998;2023-06-14T09:27:03;8.13;;;1.70;;
57401;SDS011;43226;51.110;6.998;2023-06-14T09:29:28;2.23;;;2.00;;
57401;SDS011;43226;51.110;6.998;2023-06-14T09:31:55;2.10;;;1.50;;
57401;SDS011;43226;51.110;6.998;2023-06-14T09:34:20;2.30;;;1.90;;
57401;SDS011;43226;51.110;6.998;2023-06-14T09:36:48;2.80;;;1.80;;
57401;SDS011;43226;51.110;6.998;2023-06-14T09:39:16;1.87;;;1.50;;
57401;SDS011;43226;51.110;6.998;2023-06-14T09:41:42;3.13;;;1.50;;
57401;SDS011;43226;51.110;6.998;2023-06-14T09:44:08;6.47;;;1.80;;
57401;SDS011;43226;51.110;6.998;2023-06-14T09:46:34;1.77;;;1.60;;
57401;SDS011;43226;51.110;6.998;2023-06-14T09:49:00;5.57;;;2.23;;
57401;SDS011;43226;51.110;6.998;2023-06-14T09:51:26;2.70;;;1.90;;
57401;SDS011;43226;51.110;6.998;2023-06-14T09:53:52;3.67;;;1.67;;
57401;SDS011;43226;51.110;6.998;2023-06-14T09:56:26;4.30;;;2.20;;
57401;SDS011;43226;51.110;6.998;2023-06-14T09:58:54;2.30;;;2.10;;
57401;SDS011;43226;51.110;6.998;2023-06-14T10:01:20;2.67;;;1.80;;
57401;SDS011;43226;51.110;6.998;2023-06-14T10:03:45;5.23;;;2.33;;
57401;SDS011;43226;51.110;6.998;2023-06-14T10:06:11;4.20;;;1.87;;
57401;SDS011;43226;51.110;6.998;2023-06-14T10:08:37;4.20;;;2.20;;
57401;SDS011;43226;51.110;6.998;2023-06-14T10:11:02;1.60;;;1.50;;
57401;SDS011;43226;51.110;6.998;2023-06-14T10:13:28;2.63;;;2.43;;
57401;SDS011;43226;51.110;6.998;2023-06-14T10:18:35;6.67;;;2.40;;
57401;SDS011;43226;51.110;6.998;2023-06-14T10:21:08;3.53;;;2.93;;
57401;SDS011;43226;51.110;6.998;2023-06-14T10:23:39;2.27;;;1.90;;
57401;SDS011;43226;51.110;6.998;2023-06-14T10:26:06;2.90;;;1.77;;
57401;SDS011;43226;51.110;6.998;2023-06-14T10:28:31;1.93;;;1.77;;
57401;SDS011;43226;51.110;6.998;2023-06-14T10:31:07;3.47;;;3.17;;
57401;SDS011;43226;51.110;6.998;2023-06-14T10:33:33;2.50;;;1.90;;
57401;SDS011;43226;51.110;6.998;2023-06-14T10:38:33;1.80;;;1.70;;
57401;SDS011;43226;51.110;6.998;2023-06-14T10:41:00;4.50;;;2.57;;
57401;SDS011;43226;51.110;6.998;2023-06-14T10:43:25;1.60;;;1.50;;
57401;SDS011;43226;51.110;6.998;2023-06-14T10:48:35;1.73;;;1.63;;
57401;SDS011;43226;51.110;6.998;2023-06-14T10:51:04;1.80;;;1.70;;
57401;SDS011;43226;51.110;6.998;2023-06-14T10:53:30;2.43;;;1.63;;
57401;SDS011;43226;51.110;6.998;2023-06-14T10:56:07;1.80;;;1.70;;
57401;SDS011;43226;51.110;6.998;2023-06-14T10:58:33;5.40;;;2.20;;
57401;SDS011;43226;51.110;6.998;2023-06-14T11:00:58;1.93;;;1.83;;
57401;SDS011;43226;51.110;6.998;2023-06-14T11:05:52;2.33;;;1.83;;
57401;SDS011;43226;51.110;6.998;2023-06-14T11:10:58;2.33;;;2.13;;
57401;SDS011;43226;51.110;6.998;2023-06-14T11:13:25;2.30;;;1.97;;
57401;SDS011;43226;51.110;6.998;2023-06-14T11:15:51;5.90;;;2.03;;
57401;SDS011;43226;51.110;6.998;2023-06-14T11:18:19;3.03;;;1.70;;
57401;SDS011;43226;51.110;6.998;2023-06-14T11:20:45;3.00;;;1.50;;
57401;SDS011;43226;51.110;6.998;2023-06-14T11:23:11;1.60;;;1.50;;
57401;SDS011;43226;51.110;6.998;2023-06-14T11:25:36;7.20;;;1.80;;
57401;SDS011;43226;51.110;6.998;2023-06-14T11:28:01;2.77;;;1.53;;
57401;SDS011;43226;51.110;6.998;2023-06-14T11:30:26;5.33;;;1.67;;
57401;SDS011;43226;51.110;6.998;2023-06-14T11:32:52;2.13;;;1.70;;
57401;SDS011;43226;51.110;6.998;2023-06-14T11:35:18;1.80;;;1.37;;
57401;SDS011;43226;51.110;6.998;2023-06-14T11:37:43;1.70;;;1.60;;
57401;SDS011;43226;51.110;6.998;2023-06-14T11:40:09;1.40;;;1.30;;
57401;SDS011;43226;51.110;6.998;2023-06-14T11:42:36;1.67;;;1.40;;
57401;SDS011;43226;51.110;6.998;2023-06-14T11:45:02;5.20;;;1.80;;
57401;SDS011;43226;51.110;6.998;2023-06-14T11:47:38;1.60;;;1.50;;
57401;SDS011;43226;51.110;6.998;2023-06-14T11:50:04;1.40;;;1.30;;
57401;SDS011;43226;51.110;6.998;2023-06-14T11:52:29;2.33;;;1.53;;
57401;SDS011;43226;51.110;6.998;2023-06-14T11:54:55;4.80;;;1.70;;
57401;SDS011;43226;51.110;6.998;2023-06-14T11:57:21;4.40;;;1.83;;
57401;SDS011;43226;51.110;6.998;2023-06-14T11:59:46;2.13;;;1.50;;
57401;SDS011;43226;51.110;6.998;2023-06-14T12:02:18;1.97;;;1.50;;
57401;SDS011;43226;51.110;6.998;2023-06-14T12:04:44;1.47;;;1.37;;
57401;SDS011;43226;51.110;6.998;2023-06-14T12:07:12;1.90;;;1.60;;
57401;SDS011;43226;51.110;6.998;2023-06-14T12:09:40;2.17;;;1.80;;
57401;SDS011;43226;51.110;6.998;2023-06-14T12:12:06;1.40;;;1.30;;
57401;SDS011;43226;51.110;6.998;2023-06-14T12:14:31;1.57;;;1.47;;
57401;SDS011;43226;51.110;6.998;2023-06-14T12:17:06;2.27;;;1.60;;
57401;SDS011;43226;51.110;6.998;2023-06-14T12:19:31;3.10;;;1.50;;
57401;SDS011;43226;51.110;6.998;2023-06-14T12:21:57;1.43;;;1.23;;
57401;SDS011;43226;51.110;6.998;2023-06-14T12:24:27;1.93;;;1.47;;
57401;SDS011;43226;51.110;6.998;2023-06-14T12:26:52;3.57;;;2.00;;
57401;SDS011;43226;51.110;6.998;2023-06-14T12:29:19;1.77;;;1.33;;
57401;SDS011;43226;51.110;6.998;2023-06-14T12:31:44;1.83;;;1.10;;
57401;SDS011;43226;51.110;6.998;2023-06-14T12:34:10;3.40;;;1.53;;
57401;SDS011;43226;51.110;6.998;2023-06-14T12:36:35;1.77;;;1.67;;
57401;SDS011;43226;51.110;6.998;2023-06-14T12:39:06;2.00;;;1.37;;
57401;SDS011;43226;51.110;6.998;2023-06-14T12:41:31;1.67;;;1.40;;
57401;SDS011;43226;51.110;6.998;2023-06-14T12:43:56;1.40;;;1.30;;
57401;SDS011;43226;51.110;6.998;2023-06-14T12:46:24;1.10;;;1.00;;
57401;SDS011;43226;51.110;6.998;2023-06-14T12:48:49;1.30;;;1.20;;
57401;SDS011;43226;51.110;6.998;2023-06-14T12:51:14;1.60;;;1.50;;
57401;SDS011;43226;51.110;6.998;2023-06-14T12:53:40;1.40;;;1.30;;
57401;SDS011;43226;51.110;6.998;2023-06-14T12:56:05;1.40;;;1.30;;
57401;SDS011;43226;51.110;6.998;2023-06-14T12:58:30;1.30;;;1.20;;
57401;SDS011;43226;51.110;6.998;2023-06-14T13:00:56;1.23;;;1.13;;
57401;SDS011;43226;51.110;6.998;2023-06-14T13:03:21;1.83;;;1.30;;
57401;SDS011;43226;51.110;6.998;2023-06-14T13:05:46;6.90;;;1.50;;
57401;SDS011;43226;51.110;6.998;2023-06-14T13:08:11;2.20;;;1.33;;
57401;SDS011;43226;51.110;6.998;2023-06-14T13:10:37;1.40;;;1.30;;
57401;SDS011;43226;51.110;6.998;2023-06-14T13:13:02;1.20;;;1.10;;
57401;SDS011;43226;51.110;6.998;2023-06-14T13:15:28;1.43;;;1.33;;
57401;SDS011;43226;51.110;6.998;2023-06-14T13:17:53;1.47;;;1.37;;
57401;SDS011;43226;51.110;6.998;2023-06-14T13:20:18;2.10;;;1.47;;
57401;SDS011;43226;51.110;6.998;2023-06-14T13:22:43;1.40;;;1.30;;
57401;SDS011;43226;51.110;6.998;2023-06-14T13:25:08;1.50;;;1.40;;
57401;SDS011;43226;51.110;6.998;2023-06-14T13:27:34;1.63;;;1.40;;
57401;SDS011;43226;51.110;6.998;2023-06-14T13:29:59;1.63;;;1.53;;
57401;SDS011;43226;51.110;6.998;2023-06-14T13:32:25;5.60;;;2.00;;
57401;SDS011;43226;51.110;6.998;2023-06-14T13:34:50;1.77;;;1.67;;
57401;SDS011;43226;51.110;6.998;2023-06-14T13:37:15;4.83;;;1.50;;
57401;SDS011;43226;51.110;6.998;2023-06-14T13:39:41;3.90;;;1.63;;
57401;SDS011;43226;51.110;6.998;2023-06-14T13:42:06;4.80;;;1.87;;
57401;SDS011;43226;51.110;6.998;2023-06-14T13:44:31;1.80;;;1.57;;
57401;SDS011;43226;51.110;6.998;2023-06-14T13:46:56;2.00;;;1.73;;
57401;SDS011;43226;51.110;6.998;2023-06-14T13:49:22;2.60;;;1.80;;
57401;SDS011;43226;51.110;6.998;2023-06-14T13:51:47;1.47;;;1.37;;
57401;SDS011;43226;51.110;6.998;2023-06-14T13:54:12;1.40;;;1.30;;
57401;SDS011;43226;51.110;6.998;2023-06-14T13:56:37;8.73;;;2.17;;
57401;SDS011;43226;51.110;6.998;2023-06-14T13:59:03;2.50;;;1.70;;
57401;SDS011;43226;51.110;6.998;2023-06-14T14:01:28;2.73;;;1.50;;
57401;SDS011;43226;51.110;6.998;2023-06-14T14:03:54;1.80;;;1.60;;
57401;SDS011;43226;51.110;6.998;2023-06-14T14:06:19;1.97;;;1.80;;
57401;SDS011;43226;51.110;6.998;2023-06-14T14:08:44;1.73;;;1.63;;
57401;SDS011;43226;51.110;6.998;2023-06-14T14:11:09;1.50;;;1.40;;
57401;SDS011;43226;51.110;6.998;2023-06-14T14:13:35;3.03;;;1.60;;
57401;SDS011;43226;51.110;6.998;2023-06-14T14:16:04;1.63;;;1.53;;
57401;SDS011;43226;51.110;6.998;2023-06-14T14:18:30;1.63;;;1.53;;
57401;SDS011;43226;51.110;6.998;2023-06-14T14:20:55;2.00;;;1.73;;
57401;SDS011;43226;51.110;6.998;2023-06-14T14:23:21;2.10;;;1.83;;
57401;SDS011;43226;51.110;6.998;2023-06-14T14:25:46;2.17;;;1.97;;
57401;SDS011;43226;51.110;6.998;2023-06-14T14:28:12;4.00;;;2.00;;
57401;SDS011;43226;51.110;6.998;2023-06-14T14:30:38;1.97;;;1.63;;
57401;SDS011;43226;51.110;6.998;2023-06-14T14:33:05;2.97;;;1.83;;
57401;SDS011;43226;51.110;6.998;2023-06-14T14:35:30;2.93;;;2.43;;
57401;SDS011;43226;51.110;6.998;2023-06-14T14:37:55;1.73;;;1.63;;
57401;SDS011;43226;51.110;6.998;2023-06-14T14:40:21;2.83;;;2.13;;
57401;SDS011;43226;51.110;6.998;2023-06-14T14:42:46;3.87;;;1.60;;
57401;SDS011;43226;51.110;6.998;2023-06-14T14:45:11;1.80;;;1.70;;
57401;SDS011;43226;51.110;6.998;2023-06-14T14:47:36;1.70;;;1.50;;
57401;SDS011;43226;51.110;6.998;2023-06-14T14:50:01;2.30;;;2.10;;
57401;SDS011;43226;51.110;6.998;2023-06-14T14:52:27;1.80;;;1.70;;
57401;SDS011;43226;51.110;6.998;2023-06-14T14:54:52;2.47;;;2.17;;
57401;SDS011;43226;51.110;6.998;2023-06-14T14:57:18;1.60;;;1.50;;